sensor_id;sensor_type;location;lat;lon;timestamp;pressure;altitude;pressure_sealevel;temperature;humidity
6680;BME280;3376;42.664;23.346;2023-09-30T00:02:22;94975.91;;;17.13;84.18
6680;BME280;3376;42.664;23.346;2023-09-30T00:04:49;94982.13;;;17.12;83.18
6680;BME280;3376;42.664;23.346;2023-09-30T00:07:17;94973.69;;;17.04;83.78
6680;BME280;3376;42.664;23.346;2023-09-30T00:09:44;94969.66;;;17.14;82.50
6680;BME280;3376;42.664;23.346;2023-09-30T00:12:11;94975.69;;;17.15;83.55
6680;BME280;3376;42.664;23.346;2023-09-30T00:14:38;94977.50;;;17.08;83.94
6680;BME280;3376;42.664;23.346;2023-09-30T00:17:05;94970.47;;;17.08;83.64
6680;BME280;3376;42.664;23.346;2023-09-30T00:19:32;94970.50;;;17.02;83.30
6680;BME280;3376;42.664;23.346;2023-09-30T00:21:59;94914.75;;;16.49;83.91
6680;BME280;3376;42.664;23.346;2023-09-30T00:24:28;94948.78;;;16.69;84.97
6680;BME280;3376;42.664;23.346;2023-09-30T00:26:54;94970.09;;;16.85;85.72
6680;BME280;3376;42.664;23.346;2023-09-30T00:29:22;94965.47;;;16.81;86.75
6680;BME280;3376;42.664;23.346;2023-09-30T00:31:48;94962.63;;;16.89;86.55
6680;BME280;3376;42.664;23.346;2023-09-30T00:34:15;94968.06;;;16.87;88.16
6680;BME280;3376;42.664;23.346;2023-09-30T00:36:42;94971.09;;;16.84;87.35
6680;BME280;3376;42.664;23.346;2023-09-30T00:39:09;94971.31;;;16.89;87.51
6680;BME280;3376;42.664;23.346;2023-09-30T00:41:38;94959.22;;;16.95;86.69
6680;BME280;3376;42.664;23.346;2023-09-30T00:44:05;94965.47;;;17.00;86.60
6680;BME280;3376;42.664;23.346;2023-09-30T00:46:35;94957.19;;;17.03;86.75
6680;BME280;3376;42.664;23.346;2023-09-30T00:49:03;94951.16;;;17.03;87.52
6680;BME280;3376;42.664;23.346;2023-09-30T00:51:30;94960.38;;;17.18;87.75
6680;BME280;3376;42.664;23.346;2023-09-30T00:53:59;94946.44;;;17.24;86.43
6680;BME280;3376;42.664;23.346;2023-09-30T00:56:28;94950.22;;;17.41;85.54
6680;BME280;3376;42.664;23.346;2023-09-30T00:58:57;94961.72;;;17.40;85.68
6680;BME280;3376;42.664;23.346;2023-09-30T01:01:25;94951.88;;;17.36;87.17
6680;BME280;3376;42.664;23.346;2023-09-30T01:03:52;94959.13;;;17.47;85.66
6680;BME280;3376;42.664;23.346;2023-09-30T01:06:19;94960.94;;;17.46;85.41
6680;BME280;3376;42.664;23.346;2023-09-30T01:08:46;94948.00;;;17.45;84.74
6680;BME280;3376;42.664;23.346;2023-09-30T01:11:14;94956.09;;;17.50;84.00
6680;BME280;3376;42.664;23.346;2023-09-30T01:13:41;94949.84;;;17.44;84.15
6680;BME280;3376;42.664;23.346;2023-09-30T01:16:11;94947.44;;;17.49;84.55
6680;BME280;3376;42.664;23.346;2023-09-30T01:18:38;94954.66;;;17.54;84.81
6680;BME280;3376;42.664;23.346;2023-09-30T01:21:08;94952.06;;;17.47;84.93
6680;BME280;3376;42.664;23.346;2023-09-30T01:23:37;94948.44;;;17.48;84.63
6680;BME280;3376;42.664;23.346;2023-09-30T01:26:07;94961.91;;;17.45;84.58
6680;BME280;3376;42.664;23.346;2023-09-30T01:28:35;94950.22;;;17.41;84.74
6680;BME280;3376;42.664;23.346;2023-09-30T01:31:02;94952.47;;;17.38;85.19
6680;BME280;3376;42.664;23.346;2023-09-30T01:33:30;94952.09;;;17.34;85.65
6680;BME280;3376;42.664;23.346;2023-09-30T01:35:57;94954.69;;;17.41;85.74
6680;BME280;3376;42.664;23.346;2023-09-30T01:38:25;94945.66;;;17.30;86.44
6680;BME280;3376;42.664;23.346;2023-09-30T01:40:53;94943.44;;;17.27;86.41
6680;BME280;3376;42.664;23.346;2023-09-30T01:43:20;94941.59;;;17.28;86.32
6680;BME280;3376;42.664;23.346;2023-09-30T01:45:47;94947.81;;;17.40;85.59
6680;BME280;3376;42.664;23.346;2023-09-30T01:48:14;94948.59;;;17.53;84.46
6680;BME280;3376;42.664;23.346;2023-09-30T01:50:41;94952.00;;;17.60;84.62
6680;BME280;3376;42.664;23.346;2023-09-30T01:53:08;94955.41;;;17.68;84.23
6680;BME280;3376;42.664;23.346;2023-09-30T01:55:35;94945.56;;;17.63;84.03
6680;BME280;3376;42.664;23.346;2023-09-30T01:58:03;94954.63;;;17.60;84.80
6680;BME280;3376;42.664;23.346;2023-09-30T02:00:30;94947.78;;;17.59;85.37
6680;BME280;3376;42.664;23.346;2023-09-30T02:02:57;94936.13;;;17.49;85.26
6680;BME280;3376;42.664;23.346;2023-09-30T02:05:24;94937.34;;;17.53;85.25
6680;BME280;3376;42.664;23.346;2023-09-30T02:07:51;94948.22;;;17.56;85.30
6680;BME280;3376;42.664;23.346;2023-09-30T02:10:19;94940.75;;;17.53;85.10
6680;BME280;3376;42.664;23.346;2023-09-30T02:12:46;94927.84;;;17.45;86.02
6680;BME280;3376;42.664;23.346;2023-09-30T02:15:15;94939.34;;;17.57;85.37
6680;BME280;3376;42.664;23.346;2023-09-30T02:17:42;94907.75;;;17.39;85.67
6680;BME280;3376;42.664;23.346;2023-09-30T02:20:11;94945.16;;;17.59;85.90
6680;BME280;3376;42.664;23.346;2023-09-30T02:22:41;94942.19;;;17.49;86.73
6680;BME280;3376;42.664;23.346;2023-09-30T02:25:09;94944.63;;;17.38;87.16
6680;BME280;3376;42.664;23.346;2023-09-30T02:27:38;94951.88;;;17.36;87.37
6680;BME280;3376;42.664;23.346;2023-09-30T02:30:06;94942.59;;;17.33;87.36
6680;BME280;3376;42.664;23.346;2023-09-30T02:32:34;94932.78;;;17.22;88.42
6680;BME280;3376;42.664;23.346;2023-09-30T02:35:01;94933.19;;;17.19;90.33
6680;BME280;3376;42.664;23.346;2023-09-30T02:37:32;94941.44;;;17.16;89.40
6680;BME280;3376;42.664;23.346;2023-09-30T02:40:01;94933.22;;;17.06;89.89
6680;BME280;3376;42.664;23.346;2023-09-30T02:42:29;94939.88;;;17.02;89.85
6680;BME280;3376;42.664;23.346;2023-09-30T02:44:56;94935.06;;;16.86;90.13
6680;BME280;3376;42.664;23.346;2023-09-30T02:47:23;94934.63;;;17.02;89.89
6680;BME280;3376;42.664;23.346;2023-09-30T02:49:51;94941.91;;;16.87;90.41
6680;BME280;3376;42.664;23.346;2023-09-30T02:52:18;94925.03;;;16.57;92.37
6680;BME280;3376;42.664;23.346;2023-09-30T02:54:45;94914.97;;;16.48;94.07
6680;BME280;3376;42.664;23.346;2023-09-30T02:57:11;94947.91;;;16.42;94.22
6680;BME280;3376;42.664;23.346;2023-09-30T02:59:38;94948.53;;;16.31;94.57
6680;BME280;3376;42.664;23.346;2023-09-30T03:02:05;94930.22;;;16.18;95.65
6680;BME280;3376;42.664;23.346;2023-09-30T03:04:32;94945.47;;;16.08;96.16
6680;BME280;3376;42.664;23.346;2023-09-30T03:07:00;94941.84;;;16.02;96.94
6680;BME280;3376;42.664;23.346;2023-09-30T03:09:27;94943.47;;;16.10;96.99
6680;BME280;3376;42.664;23.346;2023-09-30T03:11:54;94947.09;;;16.15;97.07
6680;BME280;3376;42.664;23.346;2023-09-30T03:14:24;94946.13;;;16.23;95.59
6680;BME280;3376;42.664;23.346;2023-09-30T03:16:51;94911.88;;;15.92;96.40
6680;BME280;3376;42.664;23.346;2023-09-30T03:19:18;94946.13;;;16.23;95.95
6680;BME280;3376;42.664;23.346;2023-09-30T03:21:45;94946.28;;;16.15;95.71
6680;BME280;3376;42.664;23.346;2023-09-30T03:24:13;94927.38;;;16.06;95.94
6680;BME280;3376;42.664;23.346;2023-09-30T03:26:40;94952.94;;;16.17;95.45
6680;BME280;3376;42.664;23.346;2023-09-30T03:29:07;94952.31;;;16.15;95.90
6680;BME280;3376;42.664;23.346;2023-09-30T03:31:35;94929.97;;;16.06;95.79
6680;BME280;3376;42.664;23.346;2023-09-30T03:34:02;94932.59;;;16.06;96.11
6680;BME280;3376;42.664;23.346;2023-09-30T03:36:29;94950.91;;;16.13;95.64
6680;BME280;3376;42.664;23.346;2023-09-30T03:38:56;94803.81;;;15.32;95.65
6680;BME280;3376;42.664;23.346;2023-09-30T03:41:26;94936.84;;;16.27;94.21
6680;BME280;3376;42.664;23.346;2023-09-30T03:43:54;94944.28;;;16.23;95.68
6680;BME280;3376;42.664;23.346;2023-09-30T03:46:21;94945.91;;;16.24;95.37
6680;BME280;3376;42.664;23.346;2023-09-30T03:48:47;94934.22;;;16.14;95.15
6680;BME280;3376;42.664;23.346;2023-09-30T03:51:15;94946.50;;;16.13;96.02
6680;BME280;3376;42.664;23.346;2023-09-30T03:53:42;94939.06;;;16.17;95.01
6680;BME280;3376;42.664;23.346;2023-09-30T03:56:09;94942.66;;;16.03;96.14
6680;BME280;3376;42.664;23.346;2023-09-30T03:58:38;94933.97;;;15.96;96.90
6680;BME280;3376;42.664;23.346;2023-09-30T04:01:05;94933.81;;;15.97;96.17
6680;BME280;3376;42.664;23.346;2023-09-30T04:03:33;94942.06;;;16.07;96.27
6680;BME280;3376;42.664;23.346;2023-09-30T04:06:01;94941.25;;;16.07;94.97
6680;BME280;3376;42.664;23.346;2023-09-30T04:08:29;94947.91;;;16.09;93.49
6680;BME280;3376;42.664;23.346;2023-09-30T04:10:58;94950.47;;;16.03;95.34
6680;BME280;3376;42.664;23.346;2023-09-30T04:13:25;94957.13;;;16.05;96.62
6680;BME280;3376;42.664;23.346;2023-09-30T04:15:54;94945.03;;;15.98;97.71
6680;BME280;3376;42.664;23.346;2023-09-30T04:18:21;94944.69;;;16.07;96.53
6680;BME280;3376;42.664;23.346;2023-09-30T04:20:48;94957.97;;;16.12;95.22
6680;BME280;3376;42.664;23.346;2023-09-30T04:23:17;94934.03;;;16.02;95.91
6680;BME280;3376;42.664;23.346;2023-09-30T04:25:45;94960.38;;;16.14;94.86
6680;BME280;3376;42.664;23.346;2023-09-30T04:28:12;94935.56;;;15.84;96.08
6680;BME280;3376;42.664;23.346;2023-09-30T04:30:41;94949.09;;;16.07;93.01
6680;BME280;3376;42.664;23.346;2023-09-30T04:33:09;94959.34;;;16.15;91.68
6680;BME280;3376;42.664;23.346;2023-09-30T04:35:37;94962.78;;;16.28;91.77
6680;BME280;3376;42.664;23.346;2023-09-30T04:38:04;94970.81;;;16.14;92.90
6680;BME280;3376;42.664;23.346;2023-09-30T04:40:31;94970.63;;;16.09;93.46
6680;BME280;3376;42.664;23.346;2023-09-30T04:42:59;94800.25;;;14.86;94.99
6680;BME280;3376;42.664;23.346;2023-09-30T04:45:26;94970.56;;;15.89;96.13
6680;BME280;3376;42.664;23.346;2023-09-30T04:47:53;94977.84;;;16.00;95.22
6680;BME280;3376;42.664;23.346;2023-09-30T04:50:23;94971.97;;;15.92;94.88
6680;BME280;3376;42.664;23.346;2023-09-30T04:52:50;94965.50;;;15.75;94.86
6680;BME280;3376;42.664;23.346;2023-09-30T04:55:17;94988.09;;;16.02;93.58
6680;BME280;3376;42.664;23.346;2023-09-30T04:57:45;94991.31;;;16.04;95.09
6680;BME280;3376;42.664;23.346;2023-09-30T05:00:14;94966.78;;;16.05;94.19
6680;BME280;3376;42.664;23.346;2023-09-30T05:02:43;94972.00;;;16.05;94.26
6680;BME280;3376;42.664;23.346;2023-09-30T05:05:10;94987.94;;;16.23;93.37
6680;BME280;3376;42.664;23.346;2023-09-30T05:07:38;94987.75;;;16.37;92.30
6680;BME280;3376;42.664;23.346;2023-09-30T05:10:06;94987.97;;;16.42;93.25
6680;BME280;3376;42.664;23.346;2023-09-30T05:12:36;94992.19;;;16.43;92.17
6680;BME280;3376;42.664;23.346;2023-09-30T05:15:03;95004.69;;;16.61;90.55
6680;BME280;3376;42.664;23.346;2023-09-30T05:17:31;94988.00;;;16.69;89.61
6680;BME280;3376;42.664;23.346;2023-09-30T05:19:59;94994.25;;;16.87;88.03
6680;BME280;3376;42.664;23.346;2023-09-30T05:22:25;94989.59;;;17.02;86.71
6680;BME280;3376;42.664;23.346;2023-09-30T05:24:54;94995.81;;;17.14;84.20
6680;BME280;3376;42.664;23.346;2023-09-30T05:27:21;94987.34;;;17.25;85.17
6680;BME280;3376;42.664;23.346;2023-09-30T05:29:48;94973.81;;;17.41;83.81
6680;BME280;3376;42.664;23.346;2023-09-30T05:32:15;94971.41;;;17.40;82.04
6680;BME280;3376;42.664;23.346;2023-09-30T05:34:43;94997.34;;;17.68;81.45
6680;BME280;3376;42.664;23.346;2023-09-30T05:37:10;94995.25;;;17.83;77.87
6680;BME280;3376;42.664;23.346;2023-09-30T05:39:38;95002.09;;;17.90;77.43
6680;BME280;3376;42.664;23.346;2023-09-30T05:42:06;95005.63;;;18.09;76.48
6680;BME280;3376;42.664;23.346;2023-09-30T05:44:33;94995.31;;;18.14;76.88
6680;BME280;3376;42.664;23.346;2023-09-30T05:47:00;95003.09;;;18.33;74.73
6680;BME280;3376;42.664;23.346;2023-09-30T05:49:27;95010.28;;;18.51;72.89
6680;BME280;3376;42.664;23.346;2023-09-30T05:51:54;95015.44;;;18.64;73.33
6680;BME280;3376;42.664;23.346;2023-09-30T05:54:21;95011.75;;;18.71;73.93
6680;BME280;3376;42.664;23.346;2023-09-30T05:56:48;95012.41;;;18.92;71.35
6680;BME280;3376;42.664;23.346;2023-09-30T05:59:16;95013.69;;;19.07;70.17
6680;BME280;3376;42.664;23.346;2023-09-30T06:01:43;95020.22;;;19.23;69.42
6680;BME280;3376;42.664;23.346;2023-09-30T06:04:12;95015.66;;;19.36;70.60
6680;BME280;3376;42.664;23.346;2023-09-30T06:06:39;95024.81;;;19.52;68.35
6680;BME280;3376;42.664;23.346;2023-09-30T06:09:08;95001.44;;;19.62;69.21
6680;BME280;3376;42.664;23.346;2023-09-30T06:11:34;95015.91;;;19.71;67.25
6680;BME280;3376;42.664;23.346;2023-09-30T06:14:02;95032.34;;;19.84;64.99
6680;BME280;3376;42.664;23.346;2023-09-30T06:16:33;95028.97;;;20.14;65.18
6680;BME280;3376;42.664;23.346;2023-09-30T06:19:00;95037.34;;;20.40;64.21
6680;BME280;3376;42.664;23.346;2023-09-30T06:21:27;95040.91;;;20.46;65.26
6680;BME280;3376;42.664;23.346;2023-09-30T06:23:55;95035.06;;;20.73;63.66
6680;BME280;3376;42.664;23.346;2023-09-30T06:26:22;95036.88;;;21.02;63.18
6680;BME280;3376;42.664;23.346;2023-09-30T06:28:50;95037.56;;;21.21;61.25
6680;BME280;3376;42.664;23.346;2023-09-30T06:31:19;95025.09;;;21.28;60.38
6680;BME280;3376;42.664;23.346;2023-09-30T06:33:48;95032.97;;;21.51;59.37
6680;BME280;3376;42.664;23.346;2023-09-30T06:36:15;94910.34;;;20.79;58.65
6680;BME280;3376;42.664;23.346;2023-09-30T06:38:43;95043.31;;;21.87;58.29
6680;BME280;3376;42.664;23.346;2023-09-30T06:41:15;95043.84;;;22.12;56.50
6680;BME280;3376;42.664;23.346;2023-09-30T06:43:42;95023.91;;;21.93;56.65
6680;BME280;3376;42.664;23.346;2023-09-30T06:46:09;95034.41;;;22.16;55.07
6680;BME280;3376;42.664;23.346;2023-09-30T06:48:37;95034.91;;;22.42;55.00
6680;BME280;3376;42.664;23.346;2023-09-30T06:51:07;95026.34;;;22.63;53.72
6680;BME280;3376;42.664;23.346;2023-09-30T06:53:35;95041.03;;;22.87;51.67
6680;BME280;3376;42.664;23.346;2023-09-30T06:56:04;95037.78;;;22.96;51.96
6680;BME280;3376;42.664;23.346;2023-09-30T06:58:32;95028.78;;;22.81;52.05
6680;BME280;3376;42.664;23.346;2023-09-30T07:00:59;95033.47;;;23.07;51.08
6680;BME280;3376;42.664;23.346;2023-09-30T07:03:26;95028.44;;;23.39;48.84
6680;BME280;3376;42.664;23.346;2023-09-30T07:05:55;95048.75;;;23.71;48.02
6680;BME280;3376;42.664;23.346;2023-09-30T07:08:27;95052.16;;;23.88;48.56
6680;BME280;3376;42.664;23.346;2023-09-30T07:10:55;95056.19;;;24.56;47.33
6680;BME280;3376;42.664;23.346;2023-09-30T07:13:22;95058.16;;;24.65;44.83
6680;BME280;3376;42.664;23.346;2023-09-30T07:15:49;95067.91;;;24.81;44.48
6680;BME280;3376;42.664;23.346;2023-09-30T07:18:16;95058.81;;;24.99;45.39
6680;BME280;3376;42.664;23.346;2023-09-30T07:20:43;95059.44;;;25.11;43.30
6680;BME280;3376;42.664;23.346;2023-09-30T07:23:10;95062.13;;;25.47;42.72
6680;BME280;3376;42.664;23.346;2023-09-30T07:25:40;95061.84;;;25.44;42.65
6680;BME280;3376;42.664;23.346;2023-09-30T07:28:08;95065.06;;;25.46;41.73
6680;BME280;3376;42.664;23.346;2023-09-30T07:30:37;95050.19;;;25.45;41.18
6680;BME280;3376;42.664;23.346;2023-09-30T07:33:05;95056.88;;;25.94;40.82
6680;BME280;3376;42.664;23.346;2023-09-30T07:35:32;95064.53;;;26.27;39.88
6680;BME280;3376;42.664;23.346;2023-09-30T07:37:59;95061.44;;;26.60;38.55
6680;BME280;3376;42.664;23.346;2023-09-30T07:40:26;95047.56;;;26.43;38.51
6680;BME280;3376;42.664;23.346;2023-09-30T07:42:56;95064.91;;;26.66;37.87
6680;BME280;3376;42.664;23.346;2023-09-30T07:45:23;95067.88;;;26.70;38.45
6680;BME280;3376;42.664;23.346;2023-09-30T07:47:50;95046.81;;;26.53;37.74
6680;BME280;3376;42.664;23.346;2023-09-30T07:50:17;95075.28;;;26.62;37.01
6680;BME280;3376;42.664;23.346;2023-09-30T07:52:44;95063.59;;;26.58;37.47
6680;BME280;3376;42.664;23.346;2023-09-30T07:55:11;95060.94;;;26.63;37.82
6680;BME280;3376;42.664;23.346;2023-09-30T07:57:40;95067.13;;;26.84;36.46
6680;BME280;3376;42.664;23.346;2023-09-30T08:00:11;95070.88;;;26.98;35.90
6680;BME280;3376;42.664;23.346;2023-09-30T08:02:41;95070.41;;;27.46;35.29
6680;BME280;3376;42.664;23.346;2023-09-30T08:05:09;95065.59;;;27.63;34.72
6680;BME280;3376;42.664;23.346;2023-09-30T08:07:36;95051.75;;;27.76;34.38
6680;BME280;3376;42.664;23.346;2023-09-30T08:10:04;95063.59;;;28.39;33.63
6680;BME280;3376;42.664;23.346;2023-09-30T08:12:32;95072.63;;;29.02;32.67
6680;BME280;3376;42.664;23.346;2023-09-30T08:14:59;95072.59;;;29.51;31.87
6680;BME280;3376;42.664;23.346;2023-09-30T08:17:30;95075.00;;;29.86;31.30
6680;BME280;3376;42.664;23.346;2023-09-30T08:19:56;95067.09;;;29.99;30.86
6680;BME280;3376;42.664;23.346;2023-09-30T08:22:23;95078.22;;;29.83;30.25
6680;BME280;3376;42.664;23.346;2023-09-30T08:24:53;95071.09;;;29.73;31.74
6680;BME280;3376;42.664;23.346;2023-09-30T08:27:20;95081.94;;;30.11;30.64
6680;BME280;3376;42.664;23.346;2023-09-30T08:29:47;95077.78;;;30.28;30.77
6680;BME280;3376;42.664;23.346;2023-09-30T08:32:13;95071.72;;;30.18;30.29
6680;BME280;3376;42.664;23.346;2023-09-30T08:34:42;95071.34;;;30.29;31.67
6680;BME280;3376;42.664;23.346;2023-09-30T08:37:09;95077.56;;;29.96;33.25
6680;BME280;3376;42.664;23.346;2023-09-30T08:39:38;95066.19;;;30.09;31.27
6680;BME280;3376;42.664;23.346;2023-09-30T08:42:08;95076.75;;;30.24;28.45
6680;BME280;3376;42.664;23.346;2023-09-30T08:44:36;95063.56;;;30.04;29.24
6680;BME280;3376;42.664;23.346;2023-09-30T08:47:05;95078.84;;;30.27;28.48
6680;BME280;3376;42.664;23.346;2023-09-30T08:49:34;95029.22;;;30.16;29.38
6680;BME280;3376;42.664;23.346;2023-09-30T08:52:05;95066.31;;;30.70;28.00
6680;BME280;3376;42.664;23.346;2023-09-30T08:54:32;95071.50;;;31.03;28.24
6680;BME280;3376;42.664;23.346;2023-09-30T08:57:00;95067.59;;;31.15;27.29
6680;BME280;3376;42.664;23.346;2023-09-30T08:59:29;95062.75;;;31.35;26.70
6680;BME280;3376;42.664;23.346;2023-09-30T09:01:56;95061.50;;;31.28;28.25
6680;BME280;3376;42.664;23.346;2023-09-30T09:04:24;95048.72;;;31.25;26.46
6680;BME280;3376;42.664;23.346;2023-09-30T09:06:53;95068.91;;;31.36;26.59
6680;BME280;3376;42.664;23.346;2023-09-30T09:09:22;95061.16;;;31.34;27.39
6680;BME280;3376;42.664;23.346;2023-09-30T09:11:50;95052.91;;;31.12;26.47
6680;BME280;3376;42.664;23.346;2023-09-30T09:14:17;95047.34;;;31.08;25.94
6680;BME280;3376;42.664;23.346;2023-09-30T09:16:54;95054.19;;;30.96;26.21
6680;BME280;3376;42.664;23.346;2023-09-30T09:19:22;95053.34;;;31.19;25.48
6680;BME280;3376;42.664;23.346;2023-09-30T09:21:58;95055.94;;;31.43;26.13
6680;BME280;3376;42.664;23.346;2023-09-30T09:24:30;95038.25;;;31.60;25.24
6680;BME280;3376;42.664;23.346;2023-09-30T09:27:11;95044.94;;;31.44;26.39
6680;BME280;3376;42.664;23.346;2023-09-30T09:29:38;95048.88;;;31.65;26.85
6680;BME280;3376;42.664;23.346;2023-09-30T09:32:07;95050.56;;;31.75;24.96
6680;BME280;3376;42.664;23.346;2023-09-30T09:34:35;95045.63;;;31.82;24.67
6680;BME280;3376;42.664;23.346;2023-09-30T09:37:13;95046.94;;;31.84;23.78
6680;BME280;3376;42.664;23.346;2023-09-30T09:39:49;95048.13;;;31.46;25.08
6680;BME280;3376;42.664;23.346;2023-09-30T09:42:24;95028.09;;;31.06;25.88
6680;BME280;3376;42.664;23.346;2023-09-30T09:44:55;95035.97;;;31.17;25.59
6680;BME280;3376;42.664;23.346;2023-09-30T09:47:24;95021.00;;;31.34;24.87
6680;BME280;3376;42.664;23.346;2023-09-30T09:49:51;95031.31;;;31.22;25.95
6680;BME280;3376;42.664;23.346;2023-09-30T09:52:19;95029.97;;;30.87;27.47
6680;BME280;3376;42.664;23.346;2023-09-30T09:54:48;94999.09;;;30.34;27.00
6680;BME280;3376;42.664;23.346;2023-09-30T09:57:17;95026.50;;;30.21;26.25
6680;BME280;3376;42.664;23.346;2023-09-30T09:59:45;95033.75;;;30.44;26.15
6680;BME280;3376;42.664;23.346;2023-09-30T10:02:14;95005.03;;;30.50;26.32
6680;BME280;3376;42.664;23.346;2023-09-30T10:04:41;95025.28;;;30.79;25.71
6680;BME280;3376;42.664;23.346;2023-09-30T10:07:11;95020.88;;;30.88;24.86
6680;BME280;3376;42.664;23.346;2023-09-30T10:09:45;95014.69;;;31.06;24.95
6680;BME280;3376;42.664;23.346;2023-09-30T10:12:16;95009.66;;;30.86;26.52
6680;BME280;3376;42.664;23.346;2023-09-30T10:14:43;95004.16;;;30.96;26.47
6680;BME280;3376;42.664;23.346;2023-09-30T10:17:10;95003.53;;;31.18;24.89
6680;BME280;3376;42.664;23.346;2023-09-30T10:20:03;95004.34;;;31.19;25.56
6680;BME280;3376;42.664;23.346;2023-09-30T10:22:31;94985.94;;;31.31;24.41
6680;BME280;3376;42.664;23.346;2023-09-30T10:24:58;95001.91;;;31.68;25.05
6680;BME280;3376;42.664;23.346;2023-09-30T10:27:31;95000.75;;;31.74;25.75
6680;BME280;3376;42.664;23.346;2023-09-30T10:29:57;94999.38;;;30.93;24.22
6680;BME280;3376;42.664;23.346;2023-09-30T10:35:44;94989.50;;;30.52;24.73
6680;BME280;3376;42.664;23.346;2023-09-30T10:38:37;94979.75;;;30.42;24.33
6680;BME280;3376;42.664;23.346;2023-09-30T10:41:06;94977.47;;;30.07;27.37
6680;BME280;3376;42.664;23.346;2023-09-30T10:43:36;94975.66;;;30.26;25.23
6680;BME280;3376;42.664;23.346;2023-09-30T10:46:05;94953.94;;;30.09;24.65
6680;BME280;3376;42.664;23.346;2023-09-30T10:48:51;94966.50;;;29.85;25.05
6680;BME280;3376;42.664;23.346;2023-09-30T10:51:19;94971.34;;;29.54;26.14
6680;BME280;3376;42.664;23.346;2023-09-30T10:53:48;94974.91;;;29.45;25.57
6680;BME280;3376;42.664;23.346;2023-09-30T10:56:17;94982.78;;;29.60;25.52
6680;BME280;3376;42.664;23.346;2023-09-30T10:58:47;94973.09;;;29.64;25.36
6680;BME280;3376;42.664;23.346;2023-09-30T11:01:15;94973.72;;;30.08;24.68
6680;BME280;3376;42.664;23.346;2023-09-30T11:03:43;94973.59;;;30.60;24.02
6680;BME280;3376;42.664;23.346;2023-09-30T11:06:12;94970.59;;;30.85;23.73
6680;BME280;3376;42.664;23.346;2023-09-30T11:08:47;94966.41;;;31.11;23.47
6680;BME280;3376;42.664;23.346;2023-09-30T11:11:17;94966.84;;;31.19;24.21
6680;BME280;3376;42.664;23.346;2023-09-30T11:13:44;94971.22;;;31.15;24.01
6680;BME280;3376;42.664;23.346;2023-09-30T11:16:12;94960.22;;;31.16;23.79
6680;BME280;3376;42.664;23.346;2023-09-30T11:18:39;94969.94;;;30.93;23.43
6680;BME280;3376;42.664;23.346;2023-09-30T11:21:08;94929.72;;;30.61;23.84
6680;BME280;3376;42.664;23.346;2023-09-30T11:23:36;94960.47;;;30.22;23.73
6680;BME280;3376;42.664;23.346;2023-09-30T11:26:03;94962.69;;;30.15;24.93
6680;BME280;3376;42.664;23.346;2023-09-30T11:28:38;94959.66;;;30.21;24.58
6680;BME280;3376;42.664;23.346;2023-09-30T11:31:08;94954.72;;;30.52;23.22
6680;BME280;3376;42.664;23.346;2023-09-30T11:33:49;94960.88;;;30.89;23.72
6680;BME280;3376;42.664;23.346;2023-09-30T11:36:18;94957.47;;;30.65;23.97
6680;BME280;3376;42.664;23.346;2023-09-30T11:38:46;94940.38;;;30.24;25.31
6680;BME280;3376;42.664;23.346;2023-09-30T11:41:13;94951.13;;;30.19;24.81
6680;BME280;3376;42.664;23.346;2023-09-30T11:43:58;94946.91;;;29.94;25.59
6680;BME280;3376;42.664;23.346;2023-09-30T11:46:26;94952.22;;;29.71;25.63
6680;BME280;3376;42.664;23.346;2023-09-30T11:48:59;94945.53;;;29.73;25.33
6680;BME280;3376;42.664;23.346;2023-09-30T11:51:27;94931.75;;;29.85;25.13
6680;BME280;3376;42.664;23.346;2023-09-30T11:53:54;94936.78;;;29.63;26.02
6680;BME280;3376;42.664;23.346;2023-09-30T11:56:23;94928.50;;;29.88;25.39
6680;BME280;3376;42.664;23.346;2023-09-30T12:27:31;94900.84;;;29.27;26.38
6680;BME280;3376;42.664;23.346;2023-09-30T12:29:58;94893.59;;;28.99;25.93
6680;BME280;3376;42.664;23.346;2023-09-30T12:32:26;94890.88;;;28.75;26.32
6680;BME280;3376;42.664;23.346;2023-09-30T12:34:53;94898.03;;;28.84;27.02
6680;BME280;3376;42.664;23.346;2023-09-30T12:37:20;94891.91;;;29.13;26.57
6680;BME280;3376;42.664;23.346;2023-09-30T12:39:47;94882.28;;;29.40;26.29
6680;BME280;3376;42.664;23.346;2023-09-30T12:42:14;94891.03;;;29.22;26.13
6680;BME280;3376;42.664;23.346;2023-09-30T12:44:42;94886.59;;;28.79;27.41
6680;BME280;3376;42.664;23.346;2023-09-30T12:47:09;94887.94;;;28.76;26.84
6680;BME280;3376;42.664;23.346;2023-09-30T12:49:36;94877.41;;;28.90;26.58
6680;BME280;3376;42.664;23.346;2023-09-30T12:52:03;94875.22;;;28.97;26.40
6680;BME280;3376;42.664;23.346;2023-09-30T12:54:30;94883.59;;;28.52;26.82
6680;BME280;3376;42.664;23.346;2023-09-30T12:56:57;94882.72;;;28.61;26.85
6680;BME280;3376;42.664;23.346;2023-09-30T12:59:24;94880.53;;;28.68;27.61
6680;BME280;3376;42.664;23.346;2023-09-30T13:01:52;94879.88;;;28.81;27.23
6680;BME280;3376;42.664;23.346;2023-09-30T13:04:19;94870.00;;;28.82;27.32
6680;BME280;3376;42.664;23.346;2023-09-30T13:06:46;94857.72;;;28.57;27.64
6680;BME280;3376;42.664;23.346;2023-09-30T13:09:15;94865.19;;;28.55;27.13
6680;BME280;3376;42.664;23.346;2023-09-30T13:11:42;94868.44;;;28.42;28.04
6680;BME280;3376;42.664;23.346;2023-09-30T13:14:09;94866.31;;;28.39;28.06
6680;BME280;3376;42.664;23.346;2023-09-30T13:16:36;94865.00;;;28.42;27.53
6680;BME280;3376;42.664;23.346;2023-09-30T13:19:05;94865.91;;;28.61;27.81
6680;BME280;3376;42.664;23.346;2023-09-30T13:21:31;94798.56;;;28.45;26.83
6680;BME280;3376;42.664;23.346;2023-09-30T13:23:58;94857.78;;;29.10;26.48
6680;BME280;3376;42.664;23.346;2023-09-30T13:26:25;94863.94;;;29.34;26.35
6680;BME280;3376;42.664;23.346;2023-09-30T13:28:52;94862.19;;;29.48;26.49
6680;BME280;3376;42.664;23.346;2023-09-30T13:31:19;94855.97;;;29.52;26.35
6680;BME280;3376;42.664;23.346;2023-09-30T13:33:46;94853.75;;;29.59;26.08
6680;BME280;3376;42.664;23.346;2023-09-30T13:36:14;94846.69;;;29.50;26.82
6680;BME280;3376;42.664;23.346;2023-09-30T13:38:41;94855.75;;;29.25;26.73
6680;BME280;3376;42.664;23.346;2023-09-30T13:41:08;94844.22;;;29.01;29.12
6680;BME280;3376;42.664;23.346;2023-09-30T13:43:35;94846.44;;;28.94;27.24
6680;BME280;3376;42.664;23.346;2023-09-30T13:46:03;94835.75;;;28.65;27.83
6680;BME280;3376;42.664;23.346;2023-09-30T13:48:32;94845.00;;;28.39;27.65